Time;durP1;ratioP1;P1;durP2;ratioP2;P2;SDS_P1;SDS_P2;PMS_P1;PMS_P2;Temp;Humidity;BMP_temperature;BMP_pressure;BME280_temperature;BME280_humidity;BME280_pressure;Samples;Min_cycle;Max_cycle;Signal;HPM_P1;HPM_P2
2023/08/19 00:01:16;;;;;;;33.35;30.13;;;;;;;21.94;100.00;101083.78;5040660;28;20044;-79
2023/08/19 00:03:44;;;;;;;33.60;30.13;;;;;;;21.93;100.00;101084.81;5028281;28;20064;-80
2023/08/19 00:06:30;;;;;;;33.28;29.95;;;;;;;21.94;100.00;101081.09;5023007;28;20060;-80
2023/08/19 00:08:55;;;;;;;32.97;29.73;;;;;;;21.95;100.00;101082.78;5027985;28;20052;-80
2023/08/19 00:11:20;;;;;;;32.40;29.30;;;;;;;21.94;100.00;101081.09;5029060;28;20026;-80
2023/08/19 00:13:46;;;;;;;31.63;28.23;;;;;;;21.91;100.00;101076.94;5028532;28;20028;-80
2023/08/19 00:16:11;;;;;;;32.05;28.88;;;;;;;21.87;100.00;101071.13;5048257;28;20035;-79
2023/08/19 00:18:36;;;;;;;33.38;30.17;;;;;;;21.88;100.00;101075.47;5049754;28;20112;-80
2023/08/19 00:21:03;;;;;;;32.95;29.67;;;;;;;21.91;100.00;101079.63;5045055;28;20041;-80
2023/08/19 00:23:28;;;;;;;33.17;29.75;;;;;;;21.88;100.00;101080.81;5023715;28;20051;-80
2023/08/19 00:25:54;;;;;;;34.20;30.83;;;;;;;21.92;100.00;101080.47;5047817;28;20116;-80
2023/08/19 00:28:19;;;;;;;32.92;29.65;;;;;;;21.92;100.00;101077.78;5037239;28;20043;-80
2023/08/19 00:30:44;;;;;;;31.98;28.92;;;;;;;21.92;100.00;101072.41;5026959;28;20052;-79
2023/08/19 00:33:10;;;;;;;31.23;27.90;;;;;;;21.93;100.00;101074.91;5033797;28;20021;-79
2023/08/19 00:35:35;;;;;;;32.08;28.75;;;;;;;21.92;100.00;101081.28;5049611;28;20021;-80
2023/08/19 00:38:00;;;;;;;32.60;29.13;;;;;;;21.89;100.00;101077.13;5033360;28;20562;-80
2023/08/19 00:40:26;;;;;;;31.08;27.80;;;;;;;21.88;100.00;101071.97;5029437;28;20041;-80
2023/08/19 00:42:52;;;;;;;30.38;27.42;;;;;;;21.88;100.00;101080.00;5030761;28;20584;-80
2023/08/19 00:45:17;;;;;;;30.67;27.65;;;;;;;21.86;100.00;101080.19;5048034;28;20362;-80
2023/08/19 00:47:42;;;;;;;30.50;27.50;;;;;;;21.87;100.00;101081.84;5029546;28;20128;-80
2023/08/19 00:50:12;;;;;;;30.20;26.77;;;;;;;21.85;100.00;101083.88;5030109;28;20033;-80
2023/08/19 00:52:38;;;;;;;29.42;26.70;;;;;;;21.85;100.00;101081.19;5032188;28;20032;-80
2023/08/19 00:55:05;;;;;;;30.13;27.23;;;;;;;21.88;100.00;101082.66;5038151;28;20558;-80
2023/08/19 00:57:34;;;;;;;29.00;26.30;;;;;;;21.85;100.00;101069.63;5030566;28;20075;-80
2023/08/19 01:00:00;;;;;;;28.70;25.85;;;;;;;21.84;100.00;101070.66;5040444;28;20891;-80
2023/08/19 01:02:25;;;;;;;29.35;26.23;;;;;;;21.85;100.00;101064.28;5035342;28;20032;-80
2023/08/19 01:04:50;;;;;;;28.80;25.98;;;;;;;21.85;100.00;101065.13;5050568;28;20477;-79
2023/08/19 01:07:45;;;;;;;27.35;24.77;;;;;;;21.87;100.00;101063.09;5050544;28;20032;-80
2023/08/19 01:10:56;;;;;;;28.45;25.08;;;;;;;21.89;100.00;101066.41;5048691;28;20052;-80
2023/08/19 01:13:30;;;;;;;26.90;24.40;;;;;;;21.86;100.00;101066.78;5043668;28;20040;-80
2023/08/19 01:16:03;;;;;;;26.85;24.05;;;;;;;21.85;100.00;101065.13;5033507;28;20511;-80
2023/08/19 01:18:30;;;;;;;26.63;24.02;;;;;;;21.87;100.00;101057.72;5048946;28;20388;-80
2023/08/19 01:20:56;;;;;;;26.40;23.95;;;;;;;21.92;100.00;101057.19;5050716;28;20017;-80
2023/08/19 01:23:30;;;;;;;25.27;22.67;;;;;;;21.93;100.00;101053.47;5049483;28;20031;-80
2023/08/19 01:25:56;;;;;;;25.42;22.92;;;;;;;21.96;100.00;101052.28;5016287;28;20025;-80
2023/08/19 01:28:22;;;;;;;25.38;22.77;;;;;;;21.98;100.00;101053.75;5034302;28;20443;-80
2023/08/19 01:30:47;;;;;;;23.17;20.92;;;;;;;21.99;100.00;101046.56;5032087;28;20029;-80
2023/08/19 01:33:13;;;;;;;24.45;22.02;;;;;;;22.01;100.00;101042.69;5044367;28;20024;-80
2023/08/19 01:36:00;;;;;;;25.15;22.60;;;;;;;22.08;100.00;101037.47;5030120;28;20474;-80
2023/08/19 01:38:55;;;;;;;24.35;21.88;;;;;;;22.12;100.00;101033.41;5031359;28;20171;-81
2023/08/19 01:41:22;;;;;;;23.00;20.80;;;;;;;22.13;100.00;101024.34;5063269;28;20390;-81
2023/08/19 01:43:49;;;;;;;22.20;19.88;;;;;;;22.17;100.00;101031.00;5036956;28;20083;-81
2023/08/19 01:46:15;;;;;;;21.30;19.40;;;;;;;22.15;100.00;101027.69;5045798;28;20106;-81
2023/08/19 01:48:40;;;;;;;21.08;19.00;;;;;;;22.18;100.00;101036.19;5025995;28;20489;-81
2023/08/19 01:51:06;;;;;;;22.13;19.60;;;;;;;22.21;100.00;101032.28;5063954;28;20070;-81
2023/08/19 01:53:31;;;;;;;20.10;18.13;;;;;;;22.20;100.00;101025.28;5031627;28;20022;-81
2023/08/19 01:55:57;;;;;;;19.10;17.23;;;;;;;22.24;100.00;101023.88;5050589;28;20059;-79
2023/08/19 01:58:22;;;;;;;19.20;17.45;;;;;;;22.27;100.00;101031.56;5050072;28;20066;-79
2023/08/19 02:00:47;;;;;;;19.48;17.48;;;;;;;22.30;100.00;101024.97;5047279;28;20031;-81
2023/08/19 02:03:13;;;;;;;17.52;16.00;;;;;;;22.26;100.00;101024.53;5031758;28;20033;-81
2023/08/19 02:05:38;;;;;;;19.77;16.58;;;;;;;22.30;100.00;101019.63;5031083;28;20516;-81
2023/08/19 02:08:04;;;;;;;20.50;15.50;;;;;;;22.30;100.00;101019.63;5031526;28;20028;-81
2023/08/19 02:10:31;;;;;;;17.05;15.38;;;;;;;22.31;100.00;101019.44;5050004;28;20029;-81
2023/08/19 02:12:57;;;;;;;17.83;15.20;;;;;;;22.30;100.00;101019.63;5050474;28;20127;-81
2023/08/19 02:15:22;;;;;;;17.00;15.25;;;;;;;22.30;100.00;101012.41;5029597;28;20533;-81
2023/08/19 02:17:47;;;;;;;16.08;14.68;;;;;;;22.33;100.00;101014.72;5028773;28;20035;-81
2023/08/19 02:20:13;;;;;;;16.50;14.80;;;;;;;22.35;100.00;101010.00;5027017;28;20057;-81
2023/08/19 02:22:40;;;;;;;16.77;15.02;;;;;;;;;;5045823;28;20013;-81
2023/08/19 02:25:06;;;;;;;15.50;14.00;;;;;;;22.35;100.00;101006.50;5049138;28;20025;-81
2023/08/19 02:27:31;;;;;;;15.70;14.13;;;;;;;22.36;100.00;100998.25;5038187;28;20018;-79
2023/08/19 02:29:57;;;;;;;15.50;13.95;;;;;;;22.41;100.00;101001.19;5047661;28;20184;-81
2023/08/19 02:32:22;;;;;;;14.18;12.88;;;;;;;22.41;100.00;100989.66;5050175;28;20057;-81
2023/08/19 02:34:48;;;;;;;14.50;13.02;;;;;;;22.40;100.00;100988.81;5048037;28;20452;-81
2023/08/19 02:37:14;;;;;;;15.35;13.07;;;;;;;22.38;100.00;100990.84;5028336;28;20082;-81
2023/08/19 02:39:40;;;;;;;14.50;13.00;;;;;;;22.36;100.00;100994.75;5044995;28;20025;-79
2023/08/19 02:42:05;;;;;;;14.43;13.07;;;;;;;22.36;100.00;100992.06;5029312;28;20133;-79
2023/08/19 02:44:31;;;;;;;14.23;12.88;;;;;;;22.37;100.00;100985.69;5029963;28;20112;-79
2023/08/19 02:46:56;;;;;;;14.88;13.38;;;;;;;22.36;100.00;100990.22;5035559;28;20040;-79
2023/08/19 02:49:21;;;;;;;14.43;12.95;;;;;;;22.34;100.00;100989.56;5049257;28;20043;-79
2023/08/19 02:51:47;;;;;;;15.70;13.18;;;;;;;22.33;100.00;100987.06;5041771;28;20496;-80
2023/08/19 02:54:13;;;;;;;14.82;13.05;;;;;;;22.31;100.00;100992.63;5037864;28;20116;-79
2023/08/19 02:56:38;;;;;;;14.57;13.15;;;;;;;22.31;100.00;100984.59;5043809;28;20032;-79
2023/08/19 02:59:04;;;;;;;13.80;12.60;;;;;;;22.32;100.00;100991.59;5048560;28;20031;-79
2023/08/19 03:01:29;;;;;;;13.70;12.32;;;;;;;22.29;100.00;100981.25;5036995;28;20108;-79
2023/08/19 03:03:54;;;;;;;13.63;12.43;;;;;;;22.31;100.00;100986.44;5044256;28;20025;-79
2023/08/19 03:06:20;;;;;;;15.07;12.45;;;;;;;22.29;100.00;100989.31;5049422;28;20135;-79
2023/08/19 03:08:45;;;;;;;14.43;12.13;;;;;;;22.27;100.00;100990.50;5033076;28;20489;-79
2023/08/19 03:11:10;;;;;;;14.05;12.35;;;;;;;22.30;100.00;100992.81;5032177;28;20023;-79
2023/08/19 03:13:36;;;;;;;13.45;12.10;;;;;;;22.32;100.00;100991.59;5046774;28;20384;-80
2023/08/19 03:16:02;;;;;;;13.77;12.00;;;;;;;22.33;100.00;100987.91;5047172;28;20037;-80
2023/08/19 03:18:28;;;;;;;12.88;11.70;;;;;;;22.36;100.00;100981.34;5046456;28;20021;-80
2023/08/19 03:20:57;;;;;;;13.35;12.02;;;;;;;22.37;100.00;100975.78;5047316;28;20083;-80
2023/08/19 03:23:26;;;;;;;12.57;11.38;;;;;;;22.41;100.00;100979.75;5047180;28;20500;-80
2023/08/19 03:25:53;;;;;;;13.45;12.10;;;;;;;22.39;100.00;100989.84;5029251;28;20067;-80
2023/08/19 03:28:18;;;;;;;12.95;11.32;;;;;;;22.39;100.00;100976.44;5034480;28;20125;-80
2023/08/19 03:30:44;;;;;;;12.88;11.65;;;;;;;22.38;100.00;100977.44;5025039;28;20490;-80
2023/08/19 03:33:09;;;;;;;13.02;11.75;;;;;;;22.36;100.00;100978.66;5009585;28;20041;-80
2023/08/19 03:35:34;;;;;;;12.13;10.80;;;;;;;22.38;100.00;100972.09;5010033;28;20478;-80
2023/08/19 03:38:01;;;;;;;12.00;10.90;;;;;;;22.39;100.00;100981.78;5020159;28;20386;-80
2023/08/19 03:40:27;;;;;;;12.82;11.50;;;;;;;22.40;100.00;100985.31;5032024;28;20395;-80
2023/08/19 03:42:52;;;;;;;13.55;11.32;;;;;;;22.39;100.00;100986.31;5031706;28;20098;-80
2023/08/19 03:45:17;;;;;;;11.82;10.68;;;;;;;22.38;100.00;100979.31;5028402;28;20026;-80
2023/08/19 03:47:43;;;;;;;13.15;11.70;;;;;;;22.41;100.00;100981.59;5028403;28;20049;-80
2023/08/19 03:50:09;;;;;;;12.48;11.38;;;;;;;22.42;100.00;100980.63;5049682;28;20100;-80
2023/08/19 03:52:34;;;;;;;15.95;11.80;;;;;;;22.43;100.00;100980.44;5047975;28;20032;-80
2023/08/19 03:54:59;;;;;;;12.52;11.27;;;;;;;22.43;100.00;100979.59;5046809;28;20025;-80
2023/08/19 03:57:25;;;;;;;12.35;11.10;;;;;;;22.45;100.00;100981.06;5049655;28;20056;-80
2023/08/19 03:59:50;;;;;;;14.43;11.00;;;;;;;22.42;100.00;100992.16;5029827;28;20129;-80
2023/08/19 04:02:16;;;;;;;11.93;10.63;;;;;;;22.45;100.00;100983.75;5040910;28;20036;-80
2023/08/19 04:05:00;;;;;;;14.75;10.60;;;;;;;22.45;100.00;100989.13;5049626;28;20024;-80
2023/08/19 04:07:25;;;;;;;11.82;10.38;;;;;;;22.43;100.00;100993.84;5049481;28;20389;-80
2023/08/19 04:09:53;;;;;;;11.95;10.75;;;;;;;22.40;100.00;100980.78;5045888;28;20024;-79
2023/08/19 04:12:18;;;;;;;12.10;10.13;;;;;;;22.40;100.00;100986.13;5028780;28;20033;-80
2023/08/19 04:14:44;;;;;;;11.02;10.02;;;;;;;22.39;100.00;100987.16;5052479;28;20025;-80
2023/08/19 04:17:12;;;;;;;12.95;10.48;;;;;;;22.37;100.00;100994.56;5027771;28;20041;-80
2023/08/19 04:19:38;;;;;;;12.32;10.50;;;;;;;22.39;100.00;100991.69;5027681;28;20359;-80
2023/08/19 04:22:03;;;;;;;12.90;9.93;;;;;;;22.37;100.00;100997.25;5059297;28;20037;-81
2023/08/19 04:24:29;;;;;;;14.13;9.98;;;;;;;22.38;100.00;100996.22;5039829;28;20041;-80
2023/08/19 04:26:54;;;;;;;11.18;10.02;;;;;;;22.36;100.00;101000.94;5050396;28;20048;-80
2023/08/19 04:29:19;;;;;;;12.88;9.93;;;;;;;22.37;100.00;100991.03;5051594;28;20033;-80
2023/08/19 04:31:45;;;;;;;12.80;9.98;;;;;;;22.36;100.00;100992.06;5043044;28;20064;-80
2023/08/19 04:34:10;;;;;;;12.45;10.18;;;;;;;22.38;100.00;100990.84;5029189;28;20079;-80
2023/08/19 04:36:35;;;;;;;13.05;9.80;;;;;;;22.37;100.00;100997.25;5050617;28;20033;-80
2023/08/19 04:39:01;;;;;;;12.02;9.63;;;;;;;22.36;100.00;101003.63;5050901;28;20035;-80
2023/08/19 04:41:27;;;;;;;11.05;9.45;;;;;;;22.37;100.00;100999.91;5050948;28;20782;-80
2023/08/19 04:43:52;;;;;;;12.52;9.63;;;;;;;22.36;100.00;101000.09;5049498;28;20105;-80
2023/08/19 04:46:18;;;;;;;11.68;9.80;;;;;;;22.36;100.00;101002.78;5051882;28;20135;-80
2023/08/19 04:48:43;;;;;;;12.48;9.98;;;;;;;22.36;100.00;101003.63;5045873;28;20024;-80
2023/08/19 04:51:08;;;;;;;10.52;9.50;;;;;;;22.39;100.00;100997.88;5033287;28;20029;-80
2023/08/19 04:53:36;;;;;;;12.63;9.38;;;;;;;22.41;100.00;100998.53;5046098;28;20053;-80
2023/08/19 04:56:03;;;;;;;12.48;9.48;;;;;;;22.42;100.00;100992.16;5051921;28;20070;-80
2023/08/19 04:58:29;;;;;;;12.95;9.20;;;;;;;22.43;100.00;100993.84;5051419;28;20055;-80
2023/08/19 05:00:55;;;;;;;10.48;8.85;;;;;;;22.43;100.00;100999.19;5042923;28;20029;-80
2023/08/19 05:03:20;;;;;;;12.35;9.18;;;;;;;22.44;100.00;100992.81;5032545;28;20029;-80
2023/08/19 05:05:45;;;;;;;12.70;9.35;;;;;;;22.44;100.00;101000.84;5060952;28;20021;-80
2023/08/19 05:08:11;;;;;;;11.30;9.38;;;;;;;22.42;100.00;101005.59;5013373;28;20120;-80
2023/08/19 05:10:36;;;;;;;10.35;8.55;;;;;;;22.43;100.00;101004.56;5056727;28;20057;-80
2023/08/19 05:13:02;;;;;;;11.45;8.98;;;;;;;22.48;100.00;100998.63;5051501;28;20025;-80
2023/08/19 05:15:27;;;;;;;12.07;9.27;;;;;;;22.52;100.00;101002.59;5050978;28;20029;-80
2023/08/19 05:17:53;;;;;;;11.30;8.70;;;;;;;22.54;100.00;101015.81;5046806;28;20486;-80
2023/08/19 05:20:19;;;;;;;10.50;8.93;;;;;;;22.57;100.00;101008.22;5030081;28;20163;-80
2023/08/19 05:22:44;;;;;;;11.02;9.25;;;;;;;22.61;100.00;101011.38;5030537;28;20022;-80
2023/08/19 05:25:10;;;;;;;11.63;8.82;;;;;;;22.62;100.00;101018.38;5038131;28;20037;-80
2023/08/19 05:27:36;;;;;;;12.75;8.35;;;;;;;22.63;100.00;101018.19;5034250;28;20100;-80
2023/08/19 05:30:04;;;;;;;11.88;8.50;;;;;;;22.64;100.00;101013.66;5049002;28;20036;-80
2023/08/19 05:32:29;;;;;;;12.00;8.75;;;;;;;22.65;100.00;101001.91;5047454;28;20033;-80
2023/08/19 05:34:55;;;;;;;11.82;8.68;;;;;;;22.65;100.00;101008.13;5046613;28;20063;-80
2023/08/19 05:37:20;;;;;;;9.82;8.25;;;;;;;22.65;100.00;101018.00;5030093;28;20036;-80
2023/08/19 05:39:46;;;;;;;16.52;8.55;;;;;;;22.65;100.00;101012.66;5023364;28;20048;-80
2023/08/19 05:42:12;;;;;;;11.55;8.88;;;;;;;22.65;100.00;101012.66;5010979;28;20490;-80
2023/08/19 05:44:40;;;;;;;14.73;8.75;;;;;;;22.65;100.00;101023.38;5014414;28;20026;-80
2023/08/19 05:47:05;;;;;;;10.68;8.40;;;;;;;22.63;100.00;101020.88;5048577;28;20052;-80
2023/08/19 05:49:30;;;;;;;12.18;8.65;;;;;;;22.65;100.00;101016.16;5050794;28;20041;-80
2023/08/19 05:51:56;;;;;;;12.65;8.43;;;;;;;22.68;100.00;101017.63;5050730;28;20037;-80
2023/08/19 05:54:21;;;;;;;10.68;8.07;;;;;;;22.72;100.00;101013.56;5049746;28;20032;-79
2023/08/19 05:56:47;;;;;;;10.05;8.20;;;;;;;22.69;100.00;101020.13;5029513;28;20500;-80
2023/08/19 05:59:13;;;;;;;11.82;8.00;;;;;;;22.70;100.00;101029.00;5033818;28;20392;-80
2023/08/19 06:01:38;;;;;;;10.05;7.53;;;;;;;22.73;100.00;101036.69;5042238;28;20032;-81
2023/08/19 06:04:04;;;;;;;9.98;8.02;;;;;;;22.75;100.00;101035.47;5051282;28;20567;-80
2023/08/19 06:06:29;;;;;;;13.77;8.32;;;;;;;22.76;100.00;101039.81;5044255;28;20021;-81
2023/08/19 06:08:55;;;;;;;12.27;8.48;;;;;;;22.80;100.00;101037.59;5030740;28;20036;-81
2023/08/19 06:11:21;;;;;;;10.40;8.20;;;;;;;22.85;100.00;101031.72;5027140;28;20010;-81
2023/08/19 06:13:46;;;;;;;11.38;8.05;;;;;;;22.90;100.00;101038.16;5031965;28;20033;-81
2023/08/19 06:16:12;;;;;;;12.88;8.10;;;;;;;22.92;100.00;101035.28;5038507;28;20025;-81
2023/08/19 06:18:41;;;;;;;9.23;7.88;;;;;;;22.97;100.00;101043.59;5039555;28;20125;-81
2023/08/19 06:21:06;;;;;;;11.20;7.72;;;;;;;23.03;100.00;101051.72;5029103;28;20138;-81
2023/08/19 06:23:32;;;;;;;12.10;7.53;;;;;;;23.05;100.00;101049.69;5028730;28;20072;-81
2023/08/19 06:25:58;;;;;;;14.23;7.70;;;;;;;23.11;100.00;101053.44;5032647;28;20406;-81
2023/08/19 06:28:24;;;;;;;8.93;8.02;;;;;;;23.13;100.00;101060.28;5040816;28;20026;-82
2023/08/19 06:30:50;;;;;;;16.65;8.50;;;;;;;23.22;100.00;101063.72;5028659;28;20027;-81
2023/08/19 06:33:16;;;;;;;10.98;8.00;;;;;;;23.31;99.91;101053.66;5029933;28;20032;-81
2023/08/19 06:35:48;;;;;;;12.63;8.10;;;;;;;23.41;99.85;101067.59;5029435;28;20083;-81
2023/08/19 06:38:21;;;;;;;14.80;7.72;;;;;;;23.49;99.28;101069.31;5034120;28;20067;-81
2023/08/19 06:41:11;;;;;;;9.15;8.07;;;;;;;23.57;99.89;101070.06;5042995;28;20033;-81
2023/08/19 06:43:40;;;;;;;8.48;7.60;;;;;;;23.56;98.74;101081.81;5017854;28;20489;-81
2023/08/19 06:46:10;;;;;;;13.13;7.65;;;;;;;23.58;98.49;101073.56;5014911;28;20045;-81
2023/08/19 06:48:36;;;;;;;9.45;7.43;;;;;;;23.58;98.92;101084.31;5027892;28;20029;-81
2023/08/19 06:51:03;;;;;;;11.98;8.23;;;;;;;23.59;98.79;101081.44;5029384;28;20070;-80
2023/08/19 06:53:29;;;;;;;9.55;7.28;;;;;;;23.60;98.53;101087.63;5030185;28;20025;-80
2023/08/19 06:56:06;;;;;;;9.30;8.25;;;;;;;23.61;98.61;101084.75;5027531;28;20440;-81
2023/08/19 06:58:36;;;;;;;10.15;8.15;;;;;;;23.66;97.48;101093.09;5027815;28;20466;-80
2023/08/19 07:01:10;;;;;;;9.57;7.93;;;;;;;23.66;98.22;101090.41;5035252;28;20370;-80
2023/08/19 07:03:36;;;;;;;11.38;7.90;;;;;;;23.70;98.09;101093.53;5027502;28;20018;-80
2023/08/19 07:06:02;;;;;;;11.30;8.00;;;;;;;23.66;98.29;101093.09;5027899;28;20079;-81
2023/08/19 07:08:30;;;;;;;9.10;7.80;;;;;;;23.68;98.35;101088.34;5039871;28;20470;-74
2023/08/19 07:10:59;;;;;;;12.05;8.10;;;;;;;23.78;99.11;101092.56;5043899;28;20049;-76
2023/08/19 07:13:24;;;;;;;17.05;8.63;;;;;;;23.91;97.89;101089.97;5028743;28;20025;-74
2023/08/19 07:15:57;;;;;;;9.55;8.35;;;;;;;24.02;97.69;101098.38;5037798;28;20048;-74
2023/08/19 07:18:26;;;;;;;9.07;8.18;;;;;;;24.32;96.82;101099.00;5036622;28;20031;-75
2023/08/19 07:20:54;;;;;;;9.18;8.07;;;;;;;24.66;94.96;101100.03;5024167;28;20036;-75
2023/08/19 07:23:23;;;;;;;9.45;8.23;;;;;;;24.82;93.12;101094.31;5009926;28;20028;-75
2023/08/19 07:25:49;;;;;;;9.65;8.13;;;;;;;25.18;92.83;101101.28;5034985;28;20059;-75
2023/08/19 07:28:17;;;;;;;11.38;7.90;;;;;;;25.37;89.65;101099.69;5043681;28;20021;-76
2023/08/19 07:30:43;;;;;;;12.77;8.15;;;;;;;25.40;88.57;101075.03;5029873;28;20013;-76
2023/08/19 07:33:11;;;;;;;11.45;7.10;;;;;;;25.42;89.39;101107.97;5029542;28;20152;-76
2023/08/19 07:35:40;;;;;;;8.43;7.10;;;;;;;25.59;89.38;101109.25;5030133;28;20028;-75
2023/08/19 07:38:06;;;;;;;15.95;7.85;;;;;;;25.58;88.87;101121.06;5020177;28;20037;-75
2023/08/19 07:40:32;;;;;;;10.98;7.63;;;;;;;25.66;88.21;101128.16;5008800;28;20057;-75
2023/08/19 07:42:57;;;;;;;11.18;7.22;;;;;;;25.66;87.22;101123.63;5024860;28;20041;-75
2023/08/19 07:45:22;;;;;;;11.48;6.65;;;;;;;25.69;87.51;101122.38;5033502;28;20025;-76
2023/08/19 07:47:48;;;;;;;12.57;7.13;;;;;;;25.76;86.94;101129.41;5031078;28;20042;-75
2023/08/19 07:50:13;;;;;;;8.95;7.07;;;;;;;25.79;88.01;101141.66;5026207;28;20037;-76
2023/08/19 07:52:39;;;;;;;10.35;7.15;;;;;;;25.78;87.41;101143.53;5036116;28;20039;-74
2023/08/19 07:55:05;;;;;;;9.25;6.95;;;;;;;25.78;87.03;101146.22;5028672;28;20022;-74
2023/08/19 07:57:30;;;;;;;10.55;6.68;;;;;;;25.78;87.97;101145.38;5031639;28;20071;-75
2023/08/19 07:59:56;;;;;;;11.23;6.43;;;;;;;25.77;87.79;101133.78;5046699;28;20021;-75
2023/08/19 08:02:21;;;;;;;10.57;6.80;;;;;;;25.76;90.09;101123.19;5050984;28;20052;-75
2023/08/19 08:04:46;;;;;;;12.48;6.57;;;;;;;25.75;90.26;101132.31;5047009;28;20397;-75
2023/08/19 08:07:12;;;;;;;10.48;6.45;;;;;;;25.83;88.90;101134.81;5049153;28;20469;-75
2023/08/19 08:09:38;;;;;;;9.05;6.63;;;;;;;25.85;87.77;101140.81;5038692;28;20024;-75
2023/08/19 08:12:04;;;;;;;9.65;6.40;;;;;;;25.84;87.79;101148.09;5044325;28;20104;-75
2023/08/19 08:14:29;;;;;;;8.25;5.90;;;;;;;25.82;87.15;101136.69;5020199;28;20679;-75
2023/08/19 08:16:56;;;;;;;9.88;6.97;;;;;;;25.71;88.36;101141.88;5050821;28;20099;-75
2023/08/19 08:19:25;;;;;;;9.45;6.45;;;;;;;25.73;88.53;101145.19;5033187;28;20033;-75
2023/08/19 08:21:51;;;;;;;6.68;5.82;;;;;;;25.72;89.94;101154.31;5031789;28;20022;-75
2023/08/19 08:24:17;;;;;;;9.00;6.63;;;;;;;25.72;88.72;101159.69;5035495;28;20036;-75
2023/08/19 08:26:43;;;;;;;10.18;6.53;;;;;;;25.71;88.84;101158.03;5032969;28;20032;-75
2023/08/19 08:29:08;;;;;;;8.98;6.78;;;;;;;25.68;89.00;101170.06;5045596;28;20029;-75
2023/08/19 08:31:33;;;;;;;11.38;6.32;;;;;;;25.63;88.58;101169.00;5028598;28;20061;-75
2023/08/19 08:33:59;;;;;;;10.88;6.57;;;;;;;25.54;89.01;101147.59;5031778;28;20045;-78
2023/08/19 08:36:24;;;;;;;12.73;7.07;;;;;;;25.54;89.92;101201.50;5039795;28;20473;-75
2023/08/19 08:38:50;;;;;;;12.88;7.30;;;;;;;25.49;90.43;101198.56;5051255;28;20058;-76
2023/08/19 08:41:15;;;;;;;11.57;7.15;;;;;;;25.46;89.83;101198.97;5041008;28;20446;-75
2023/08/19 08:43:50;;;;;;;9.73;7.00;;;;;;;25.41;90.46;101195.25;5043246;28;20082;-75
2023/08/19 08:46:17;;;;;;;11.75;6.97;;;;;;;25.43;90.77;101194.00;5029746;28;20045;-76
2023/08/19 08:48:43;;;;;;;13.43;8.35;;;;;;;25.42;90.12;101196.91;5031292;28;20033;-76
2023/08/19 08:51:09;;;;;;;8.52;6.60;;;;;;;25.46;90.41;101198.16;5030346;28;20374;-75
2023/08/19 08:53:36;;;;;;;10.07;6.70;;;;;;;25.41;90.31;101200.63;5035885;28;20029;-76
2023/08/19 08:56:02;;;;;;;12.70;6.43;;;;;;;25.43;91.12;101215.56;5047308;28;20742;-76
2023/08/19 08:58:27;;;;;;;10.48;6.80;;;;;;;25.43;91.07;101220.94;5024448;28;20604;-76
2023/08/19 09:00:53;;;;;;;11.18;7.03;;;;;;;25.44;90.84;101222.59;5010268;28;20026;-76
2023/08/19 09:03:28;;;;;;;13.35;8.05;;;;;;;25.49;92.01;101225.53;5009969;28;20045;-76
2023/08/19 09:06:01;;;;;;;8.93;8.02;;;;;;;25.55;91.11;101229.28;5010155;28;20109;-76
2023/08/19 09:08:35;;;;;;;11.85;7.13;;;;;;;25.64;92.69;101246.13;5010235;28;20646;-76
2023/08/19 09:11:03;;;;;;;10.00;7.88;;;;;;;25.70;91.47;101237.25;5009277;28;20478;-75
2023/08/19 09:13:30;;;;;;;12.82;7.93;;;;;;;25.79;90.61;101246.81;5011531;28;20028;-76
2023/08/19 09:15:56;;;;;;;11.57;8.25;;;;;;;25.83;90.46;101242.66;5011824;28;20083;-75
2023/08/19 09:18:21;;;;;;;12.13;9.05;;;;;;;25.89;90.47;101247.22;5009685;28;20124;-76
2023/08/19 09:20:47;;;;;;;11.93;8.70;;;;;;;26.10;90.54;101240.84;5011681;28;20030;-75
2023/08/19 09:23:12;;;;;;;11.90;9.23;;;;;;;26.18;90.18;101246.03;5011788;28;20032;-76
2023/08/19 09:25:40;;;;;;;10.98;9.40;;;;;;;26.23;89.01;101257.88;5011250;28;20026;-76
2023/08/19 09:28:06;;;;;;;12.68;9.40;;;;;;;26.23;89.37;101260.56;5020599;28;20017;-75
2023/08/19 09:30:34;;;;;;;13.13;10.07;;;;;;;26.27;87.72;101265.56;5050984;28;20096;-75
2023/08/19 09:33:00;;;;;;;11.52;10.32;;;;;;;26.29;88.62;101263.47;5050626;28;20021;-76
2023/08/19 09:35:34;;;;;;;13.30;10.10;;;;;;;26.45;87.86;101265.81;5051115;28;20650;-76
2023/08/19 09:38:00;;;;;;;13.30;10.70;;;;;;;26.62;86.72;101275.16;5051041;28;20035;-76
2023/08/19 09:40:25;;;;;;;17.10;10.45;;;;;;;26.76;87.12;101273.25;5048925;28;20021;-76
2023/08/19 09:42:51;;;;;;;10.68;9.45;;;;;;;27.05;86.60;101266.59;5050794;28;20029;-76
2023/08/19 09:45:18;;;;;;;12.30;11.00;;;;;;;27.34;84.57;101274.22;5051006;28;20356;-76
2023/08/19 09:47:52;;;;;;;13.40;10.25;;;;;;;27.57;84.42;101289.06;5049424;28;20455;-76
2023/08/19 09:50:19;;;;;;;12.73;11.32;;;;;;;27.60;82.25;101294.06;5051716;28;20029;-76
2023/08/19 09:52:55;;;;;;;13.15;11.77;;;;;;;27.66;82.25;101291.38;5051122;28;20025;-75
2023/08/19 09:55:29;;;;;;;12.43;11.10;;;;;;;27.69;82.63;101299.06;5034563;28;20367;-76
2023/08/19 09:57:56;;;;;;;14.57;10.50;;;;;;;27.76;82.44;101299.84;5031567;28;20029;-76
2023/08/19 10:00:23;;;;;;;11.05;9.70;;;;;;;27.95;82.07;101311.59;5030902;28;20477;-76
2023/08/19 10:02:50;;;;;;;14.30;10.27;;;;;;;27.98;80.09;101313.03;5031528;28;20027;-75
2023/08/19 10:05:16;;;;;;;14.10;10.75;;;;;;;27.94;78.93;101312.66;5031369;28;20021;-76
2023/08/19 10:07:49;;;;;;;14.30;10.75;;;;;;;27.78;80.76;101323.97;5030937;28;20036;-76
2023/08/19 10:10:16;;;;;;;10.75;9.65;;;;;;;27.70;79.76;101314.25;5031348;28;20381;-76
2023/08/19 10:12:44;;;;;;;11.52;9.45;;;;;;;27.70;80.21;101316.94;5031250;28;20470;-76
2023/08/19 10:15:13;;;;;;;12.68;10.15;;;;;;;27.66;81.19;101313.00;5030751;28;20029;-76
2023/08/19 10:17:43;;;;;;;11.93;10.35;;;;;;;27.78;80.64;101321.28;5031588;28;20068;-76
2023/08/19 10:20:12;;;;;;;12.27;9.85;;;;;;;27.84;80.48;101317.69;5031321;28;20029;-76
2023/08/19 10:22:47;;;;;;;12.75;10.57;;;;;;;28.03;80.08;101333.00;5028501;28;20112;-76
2023/08/19 10:25:14;;;;;;;15.40;10.48;;;;;;;28.62;78.14;101323.69;5031147;28;20481;-75
2023/08/19 10:27:41;;;;;;;10.88;9.60;;;;;;;28.82;76.45;101330.78;5031923;28;20393;-76
2023/08/19 10:30:22;;;;;;;12.07;10.68;;;;;;;28.96;76.59;101343.22;5048759;28;20064;-75
2023/08/19 10:32:47;;;;;;;11.15;9.82;;;;;;;28.88;74.55;101329.97;5049976;28;20075;-75
2023/08/19 10:35:13;;;;;;;11.05;9.07;;;;;;;29.11;75.35;101338.25;5049208;28;20025;-75
2023/08/19 10:37:43;;;;;;;13.20;9.52;;;;;;;29.15;74.18;101341.34;5048799;28;20061;-75
2023/08/19 10:40:12;;;;;;;10.43;9.43;;;;;;;29.10;73.61;101343.91;5049920;28;20027;-75
2023/08/19 10:42:38;;;;;;;12.23;9.60;;;;;;;28.98;73.07;101358.19;5049450;28;20021;-75
2023/08/19 10:45:14;;;;;;;12.15;9.55;;;;;;;28.73;74.52;101353.81;5049885;28;20366;-75
2023/08/19 10:47:41;;;;;;;10.02;9.13;;;;;;;28.43;74.88;101365.28;5048156;28;20057;-74
2023/08/19 10:50:10;;;;;;;15.93;11.13;;;;;;;28.18;75.43;101369.78;5048065;28;20029;-75
2023/08/19 10:52:58;;;;;;;13.90;10.52;;;;;;;27.91;78.10;101382.59;5050119;28;20032;-76
2023/08/19 10:55:24;;;;;;;12.73;11.13;;;;;;;27.60;77.76;101394.94;5032397;28;20017;-75
2023/08/19 10:57:50;;;;;;;13.05;10.98;;;;;;;27.40;78.64;101386.88;5029231;28;20031;-76
2023/08/19 11:00:16;;;;;;;13.73;11.40;;;;;;;27.27;80.01;101391.47;5028266;28;20108;-75
2023/08/19 11:02:44;;;;;;;13.85;12.15;;;;;;;27.14;80.77;101397.72;5029139;28;20116;-76
2023/08/19 11:05:10;;;;;;;13.32;11.95;;;;;;;27.02;81.82;101404.78;5029865;28;20056;-75
2023/08/19 11:07:35;;;;;;;13.65;12.25;;;;;;;26.89;80.90;101399.38;5030645;28;20021;-75
2023/08/19 11:10:01;;;;;;;14.63;12.32;;;;;;;26.78;80.39;101404.31;5028577;28;20232;-75